createdAt,value
2023-03-24T00:00:17.736Z,7.64
2023-03-24T00:02:46.466Z,7.63
2023-03-24T00:05:16.657Z,7.65
2023-03-24T00:07:43.563Z,7.58
2023-03-24T00:10:18.018Z,7.56
2023-03-24T00:12:46.007Z,7.53
2023-03-24T00:15:15.548Z,7.47
2023-03-24T00:17:42.271Z,7.40
2023-03-24T00:20:14.717Z,7.43
2023-03-24T00:22:48.802Z,7.44
2023-03-24T00:25:17.605Z,7.41
2023-03-24T00:27:48.958Z,7.41
2023-03-24T00:30:17.308Z,7.35
2023-03-24T00:32:44.830Z,7.33
2023-03-24T00:35:13.794Z,7.29
2023-03-24T00:37:41.748Z,7.26
2023-03-24T00:40:16.395Z,7.20
2023-03-24T00:42:45.957Z,7.17
2023-03-24T00:45:18.250Z,7.17
2023-03-24T00:47:45.007Z,7.14
2023-03-24T00:50:20.607Z,7.08
2023-03-24T00:52:49.160Z,7.02
2023-03-24T00:55:16.702Z,6.94
2023-03-24T00:57:51.827Z,6.93
2023-03-24T01:00:21.501Z,6.93
2023-03-24T01:02:53.766Z,6.88
2023-03-24T01:05:22.784Z,6.82
2023-03-24T01:07:52.059Z,6.78
2023-03-24T01:10:21.769Z,6.71
2023-03-24T01:12:49.017Z,6.70
2023-03-24T01:15:20.300Z,6.74
2023-03-24T01:17:48.814Z,6.70
2023-03-24T01:20:16.502Z,6.55
2023-03-24T01:22:44.811Z,6.33
2023-03-24T01:25:22.793Z,6.27
2023-03-24T01:27:51.056Z,6.26
2023-03-24T01:30:21.847Z,6.26
2023-03-24T01:32:48.587Z,6.33
2023-03-24T01:35:15.408Z,6.39
2023-03-24T01:37:42.205Z,6.37
2023-03-24T01:40:12.494Z,6.32
2023-03-24T01:42:39.899Z,6.29
2023-03-24T01:45:40.560Z,6.32
2023-03-24T01:48:16.429Z,6.34
2023-03-24T01:50:48.991Z,6.27
2023-03-24T01:53:15.823Z,6.13
2023-03-24T01:55:45.972Z,6.07
2023-03-24T01:58:13.056Z,6.05
2023-03-24T02:00:42.228Z,6.06
2023-03-24T02:03:14.916Z,6.01
2023-03-24T02:05:45.253Z,5.95
2023-03-24T02:08:32.847Z,5.87
2023-03-24T02:11:01.592Z,5.88
2023-03-24T02:13:28.217Z,5.83
2023-03-24T02:16:14.055Z,5.82
2023-03-24T02:19:01.609Z,5.86
2023-03-24T02:21:46.383Z,5.88
2023-03-24T02:24:31.705Z,5.88
2023-03-24T02:27:27.118Z,5.84
2023-03-24T02:29:53.571Z,5.81
2023-03-24T02:32:47.639Z,5.74
2023-03-24T02:35:32.479Z,5.71
2023-03-24T02:38:20.432Z,5.73
2023-03-24T02:40:47.365Z,5.74
2023-03-24T02:43:18.128Z,5.76
2023-03-24T02:45:54.492Z,5.71
2023-03-24T02:48:52.289Z,5.64
2023-03-24T02:51:34.729Z,5.65
2023-03-24T02:54:07.311Z,5.62
2023-03-24T02:56:37.604Z,5.58
2023-03-24T02:59:15.974Z,5.62
2023-03-24T03:01:54.177Z,5.65
2023-03-24T03:04:29.557Z,5.69
2023-03-24T03:06:59.756Z,5.68
2023-03-24T03:09:28.936Z,5.66
2023-03-24T03:11:59.820Z,5.57
2023-03-24T03:14:38.945Z,5.53
2023-03-24T03:17:12.721Z,5.50
2023-03-24T03:19:44.227Z,5.51
2023-03-24T03:22:17.695Z,5.44
2023-03-24T03:24:50.539Z,5.42
2023-03-24T03:27:27.328Z,5.37
2023-03-24T03:30:00.360Z,5.20
2023-03-24T03:32:31.766Z,5.12
2023-03-24T03:35:11.092Z,5.15
2023-03-24T03:37:59.064Z,5.23
2023-03-24T03:40:34.811Z,5.29
2023-03-24T03:43:02.227Z,5.31
2023-03-24T03:45:28.897Z,5.36
2023-03-24T03:47:55.669Z,5.38
2023-03-24T03:50:22.349Z,5.35
2023-03-24T03:52:50.152Z,5.34
2023-03-24T03:55:17.128Z,5.35
2023-03-24T03:57:43.736Z,5.33
2023-03-24T04:00:17.124Z,5.26
2023-03-24T04:03:14.787Z,5.23
2023-03-24T04:05:57.855Z,5.23
2023-03-24T04:08:32.170Z,5.15
2023-03-24T04:11:23.327Z,5.13
2023-03-24T04:14:19.145Z,5.00
2023-03-24T04:16:46.354Z,4.99
2023-03-24T04:19:24.444Z,5.04
2023-03-24T04:22:13.059Z,5.03
2023-03-24T04:25:07.483Z,5.01
2023-03-24T04:27:46.657Z,4.93
2023-03-24T04:30:26.833Z,4.90
2023-03-24T04:33:05.569Z,4.83
2023-03-24T04:35:43.847Z,4.79
2023-03-24T04:38:19.036Z,4.80
2023-03-24T04:40:49.616Z,4.79
2023-03-24T04:43:20.993Z,4.77
2023-03-24T04:45:50.093Z,4.78
2023-03-24T04:48:18.820Z,4.74
2023-03-24T04:50:55.364Z,4.72
2023-03-24T04:53:22.573Z,4.64
2023-03-24T04:56:24.745Z,4.69
2023-03-24T04:58:51.395Z,4.67
2023-03-24T05:01:21.446Z,4.64
2023-03-24T05:03:51.641Z,4.68
2023-03-24T05:06:18.190Z,4.67
2023-03-24T05:08:44.739Z,4.66
2023-03-24T05:11:11.341Z,4.70
2023-03-24T05:13:37.944Z,4.73
2023-03-24T05:16:04.863Z,4.69
2023-03-24T05:18:31.575Z,4.76
2023-03-24T05:20:58.375Z,4.82
2023-03-24T05:23:24.956Z,4.87
2023-03-24T05:25:51.561Z,4.89
2023-03-24T05:28:18.457Z,4.92
2023-03-24T05:30:45.266Z,5.01
2023-03-24T05:33:12.228Z,5.12
2023-03-24T05:35:38.920Z,5.19
2023-03-24T05:38:05.603Z,5.28
2023-03-24T05:40:32.319Z,5.38
2023-03-24T05:42:59.032Z,5.49
2023-03-24T05:45:26.927Z,5.59
2023-03-24T05:47:53.513Z,5.69
2023-03-24T05:50:20.048Z,5.79
2023-03-24T05:52:46.885Z,5.89
2023-03-24T05:55:16.014Z,5.95
2023-03-24T05:57:43.531Z,6.02
2023-03-24T06:00:16.865Z,6.14
2023-03-24T06:02:45.261Z,6.28
2023-03-24T06:05:13.024Z,6.41
2023-03-24T06:07:42.715Z,6.56
2023-03-24T06:10:11.505Z,6.73
2023-03-24T06:12:38.725Z,6.90
2023-03-24T06:15:06.307Z,7.08
2023-03-24T06:17:33.937Z,7.25
2023-03-24T06:20:04.211Z,7.42
2023-03-24T06:22:32.829Z,7.58
2023-03-24T06:24:59.685Z,7.73
2023-03-24T06:27:30.374Z,7.86
2023-03-24T06:29:57.922Z,7.98
2023-03-24T06:32:25.522Z,8.12
2023-03-24T06:34:52.986Z,8.25
2023-03-24T06:37:22.388Z,8.40
2023-03-24T06:39:48.988Z,8.54
2023-03-24T06:42:16.067Z,8.68
2023-03-24T06:44:42.611Z,8.80
2023-03-24T06:47:09.195Z,8.97
2023-03-24T06:49:37.210Z,9.12
2023-03-24T06:52:04.708Z,9.29
2023-03-24T06:54:31.551Z,9.48
2023-03-24T06:56:58.230Z,9.62
2023-03-24T06:59:24.981Z,9.78
2023-03-24T07:01:52.179Z,9.89
2023-03-24T07:04:19.411Z,10.03
2023-03-24T07:07:00.899Z,10.17
2023-03-24T07:09:32.726Z,10.34
2023-03-24T07:11:59.291Z,10.48
2023-03-24T07:14:26.557Z,10.64
2023-03-24T07:16:53.726Z,10.79
2023-03-24T07:19:20.856Z,10.95
2023-03-24T07:21:50.040Z,11.11
2023-03-24T07:24:17.825Z,11.27
2023-03-24T07:26:44.622Z,11.42
2023-03-24T07:29:11.874Z,11.52
2023-03-24T07:31:39.364Z,11.62
2023-03-24T07:34:06.541Z,11.75
2023-03-24T07:36:33.278Z,11.86
2023-03-24T07:38:59.843Z,11.99
2023-03-24T07:41:27.732Z,12.11
2023-03-24T07:43:54.300Z,12.26
2023-03-24T07:46:20.906Z,12.41
2023-03-24T07:48:47.650Z,12.54
2023-03-24T07:51:14.277Z,12.69
2023-03-24T07:53:40.806Z,12.84
2023-03-24T07:56:07.946Z,12.99
2023-03-24T07:58:34.555Z,13.12
2023-03-24T08:01:01.146Z,13.25
2023-03-24T08:03:28.451Z,13.42
2023-03-24T08:05:55.468Z,13.59
2023-03-24T08:08:22.194Z,13.77
2023-03-24T08:10:50.276Z,13.93
2023-03-24T08:13:18.035Z,14.13
2023-03-24T08:15:44.710Z,14.28
2023-03-24T08:18:11.527Z,14.39
2023-03-24T08:20:38.461Z,14.51
2023-03-24T08:23:07.298Z,14.65
2023-03-24T08:25:37.774Z,14.77
2023-03-24T08:28:06.102Z,14.88
2023-03-24T08:30:33.026Z,15.05
2023-03-24T08:33:02.645Z,15.19
2023-03-24T08:35:32.114Z,15.37
2023-03-24T08:37:59.712Z,15.52
2023-03-24T08:40:27.812Z,15.64
2023-03-24T08:42:57.777Z,15.81
2023-03-24T08:45:27.629Z,16.01
2023-03-24T08:47:55.488Z,16.14
2023-03-24T08:50:25.943Z,16.22
2023-03-24T08:52:52.679Z,16.19
2023-03-24T08:55:21.050Z,16.18
2023-03-24T08:57:47.897Z,16.23
2023-03-24T09:00:16.063Z,16.28
2023-03-24T09:02:47.545Z,16.36
2023-03-24T09:05:32.903Z,16.46
2023-03-24T09:08:08.269Z,16.60
2023-03-24T09:10:35.040Z,16.76
2023-03-24T09:13:01.832Z,16.77
2023-03-24T09:15:28.583Z,16.87
2023-03-24T09:17:55.256Z,16.92
2023-03-24T09:20:21.866Z,16.90
2023-03-24T09:22:49.794Z,16.84
2023-03-24T09:25:19.161Z,16.92
2023-03-24T09:27:46.532Z,17.11
2023-03-24T09:30:15.646Z,17.31
2023-03-24T09:32:42.510Z,17.44
2023-03-24T09:35:10.113Z,17.46
2023-03-24T09:37:38.511Z,17.53
2023-03-24T09:40:06.072Z,17.60
2023-03-24T09:42:45.659Z,17.67
2023-03-24T09:45:19.631Z,17.79
2023-03-24T09:47:58.692Z,17.90
2023-03-24T09:50:29.341Z,18.06
2023-03-24T09:53:05.632Z,18.27
2023-03-24T09:55:33.016Z,18.45
2023-03-24T09:58:05.746Z,18.71
2023-03-24T10:00:33.208Z,18.92
2023-03-24T10:03:12.255Z,19.14
2023-03-24T10:05:48.203Z,19.38
2023-03-24T10:08:21.655Z,19.58
2023-03-24T10:10:53.860Z,19.69
2023-03-24T10:13:44.187Z,19.86
2023-03-24T10:16:18.200Z,20.12
2023-03-24T10:18:50.781Z,20.39
2023-03-24T10:21:22.570Z,20.62
2023-03-24T10:24:05.958Z,20.79
2023-03-24T10:27:29.984Z,20.92
2023-03-24T10:30:04.325Z,20.81
2023-03-24T10:32:35.076Z,20.88
2023-03-24T10:35:10.022Z,21.06
2023-03-24T10:37:37.444Z,21.19
2023-03-24T10:40:14.890Z,21.26
2023-03-24T10:42:41.455Z,21.35
2023-03-24T10:45:14.093Z,21.42
2023-03-24T10:47:42.144Z,21.44
2023-03-24T10:50:14.543Z,21.37
2023-03-24T10:52:47.344Z,21.35
2023-03-24T10:55:17.155Z,21.36
2023-03-24T10:57:49.909Z,21.46
2023-03-24T11:00:19.866Z,21.55
2023-03-24T11:02:59.297Z,21.75
2023-03-24T11:05:30.661Z,21.85
2023-03-24T11:08:12.357Z,22.07
2023-03-24T11:10:39.116Z,22.25
2023-03-24T11:13:41.212Z,22.29
2023-03-24T11:16:16.188Z,22.35
2023-03-24T11:19:22.713Z,22.48
2023-03-24T11:21:57.744Z,22.47
2023-03-24T11:24:25.121Z,22.50
2023-03-24T11:27:04.219Z,22.61
2023-03-24T11:29:34.235Z,22.84
2023-03-24T11:32:03.513Z,23.10
2023-03-24T11:34:34.399Z,23.44
2023-03-24T11:37:09.374Z,23.64
2023-03-24T11:39:36.154Z,23.94
2023-03-24T11:42:10.922Z,24.16
2023-03-24T11:44:46.797Z,24.26
2023-03-24T11:47:37.566Z,24.61
2023-03-24T11:50:07.111Z,25.14
2023-03-24T11:52:39.579Z,25.53
2023-03-24T11:55:16.466Z,25.98
2023-03-24T11:57:50.418Z,26.05
2023-03-24T12:00:30.458Z,26.00
2023-03-24T12:03:33.066Z,26.05
2023-03-24T12:06:02.686Z,25.97
2023-03-24T12:08:55.629Z,25.74
2023-03-24T12:11:56.323Z,25.85
2023-03-24T12:14:47.728Z,26.19
2023-03-24T12:17:21.939Z,26.54
2023-03-24T12:20:07.548Z,27.30
2023-03-24T12:23:04.819Z,27.51
2023-03-24T12:25:31.387Z,27.87
2023-03-24T12:28:19.403Z,27.96
2023-03-24T12:31:05.187Z,28.18
2023-03-24T12:33:40.791Z,28.45
2023-03-24T12:36:37.262Z,28.37
2023-03-24T12:39:12.777Z,28.07
2023-03-24T12:42:05.377Z,27.78
2023-03-24T12:45:04.875Z,28.09
2023-03-24T12:47:40.416Z,28.25
2023-03-24T12:50:34.309Z,28.37
2023-03-24T12:53:08.132Z,28.91
2023-03-24T12:55:43.409Z,29.14
2023-03-24T12:58:35.900Z,29.06
2023-03-24T13:01:29.892Z,29.11
2023-03-24T13:04:05.651Z,29.40
2023-03-24T13:07:14.787Z,29.38
2023-03-24T13:10:06.760Z,29.39
2023-03-24T13:12:39.213Z,29.54
2023-03-24T13:15:11.820Z,29.71
2023-03-24T13:17:48.625Z,30.22
2023-03-24T13:20:28.012Z,30.43
2023-03-24T13:22:57.587Z,30.21
2023-03-24T13:25:27.255Z,30.67
2023-03-24T13:27:58.619Z,30.87
2023-03-24T13:30:33.799Z,31.47
2023-03-24T13:33:11.484Z,30.98
2023-03-24T13:36:16.636Z,30.89
2023-03-24T13:38:50.221Z,30.65
2023-03-24T13:41:23.880Z,30.11
2023-03-24T13:44:02.650Z,28.85
2023-03-24T13:46:29.604Z,28.42
2023-03-24T13:48:59.033Z,28.77
2023-03-24T13:51:41.055Z,28.72
2023-03-24T13:54:16.502Z,28.66
2023-03-24T13:56:49.126Z,29.04
2023-03-24T13:59:40.990Z,29.76
2023-03-24T14:02:18.105Z,29.55
2023-03-24T14:04:47.471Z,29.71
2023-03-24T14:07:41.187Z,29.71
2023-03-24T14:10:17.332Z,29.62
2023-03-24T14:12:58.908Z,29.27
2023-03-24T14:15:35.844Z,29.44
2023-03-24T14:18:26.296Z,29.91
2023-03-24T14:20:55.892Z,30.18
2023-03-24T14:23:49.282Z,30.42
2023-03-24T14:26:23.232Z,30.47
2023-03-24T14:28:54.293Z,29.79
2023-03-24T14:31:36.583Z,29.45
2023-03-24T14:34:20.347Z,28.49
2023-03-24T14:37:00.067Z,27.88
2023-03-24T14:39:43.981Z,27.38
2023-03-24T14:42:29.148Z,27.02
2023-03-24T14:44:59.889Z,26.54
2023-03-24T14:47:31.037Z,26.13
2023-03-24T14:50:00.049Z,25.90
2023-03-24T14:52:39.063Z,25.86
2023-03-24T14:55:10.349Z,25.93
2023-03-24T14:57:45.644Z,25.91
2023-03-24T15:00:31.123Z,25.70
2023-03-24T15:03:10.828Z,25.45
2023-03-24T15:05:38.871Z,25.65
2023-03-24T15:08:23.496Z,25.77
2023-03-24T15:11:04.086Z,25.72
2023-03-24T15:13:42.691Z,25.34
2023-03-24T15:16:12.589Z,25.03
2023-03-24T15:19:00.717Z,24.82
2023-03-24T15:21:37.083Z,24.44
2023-03-24T15:24:29.194Z,24.17
2023-03-24T15:27:14.919Z,23.89
2023-03-24T15:29:43.413Z,23.70
2023-03-24T15:32:19.003Z,23.48
2023-03-24T15:34:52.903Z,23.33
2023-03-24T15:37:31.791Z,23.13
2023-03-24T15:40:12.560Z,23.14
2023-03-24T15:42:45.145Z,23.28
2023-03-24T15:45:27.713Z,23.40
2023-03-24T15:47:55.062Z,23.32
2023-03-24T15:50:32.037Z,23.43
2023-03-24T15:53:18.771Z,23.30
2023-03-24T15:55:45.730Z,23.09
2023-03-24T15:58:21.977Z,22.71
2023-03-24T16:00:53.175Z,22.45
2023-03-24T16:03:26.406Z,22.21
2023-03-24T16:05:55.570Z,22.08
2023-03-24T16:08:30.823Z,21.94
2023-03-24T16:11:07.857Z,21.85
2023-03-24T16:13:35.051Z,21.75
2023-03-24T16:16:23.341Z,21.71
2023-03-24T16:18:50.759Z,21.63
2023-03-24T16:21:19.073Z,21.60
2023-03-24T16:23:47.020Z,21.59
2023-03-24T16:26:18.082Z,21.50
2023-03-24T16:28:45.972Z,21.39
2023-03-24T16:31:34.993Z,21.20
2023-03-24T16:34:01.692Z,21.05
2023-03-24T16:36:28.271Z,20.92
2023-03-24T16:38:57.464Z,20.72
2023-03-24T16:41:24.706Z,20.62
2023-03-24T16:43:53.070Z,20.53
2023-03-24T16:46:25.518Z,20.47
2023-03-24T16:48:52.664Z,20.39
2023-03-24T16:51:19.546Z,20.36
2023-03-24T16:53:46.702Z,20.31
2023-03-24T16:56:15.551Z,20.23
2023-03-24T16:58:42.168Z,20.18
2023-03-24T17:01:37.799Z,20.15
2023-03-24T17:04:10.636Z,20.13
2023-03-24T17:06:39.895Z,20.09
2023-03-24T17:09:08.177Z,19.92
2023-03-24T17:11:41.673Z,19.80
2023-03-24T17:14:12.211Z,19.69
2023-03-24T17:16:44.429Z,19.59
2023-03-24T17:19:16.848Z,19.49
2023-03-24T17:21:59.284Z,19.39
2023-03-24T17:24:25.949Z,19.33
2023-03-24T17:26:52.826Z,19.17
2023-03-24T17:29:19.403Z,19.15
2023-03-24T17:31:46.080Z,19.08
2023-03-24T17:36:43.945Z,18.74
2023-03-24T17:39:16.058Z,18.68
2023-03-24T17:41:42.605Z,18.58
2023-03-24T17:44:09.175Z,18.39
2023-03-24T17:46:35.795Z,18.16
2023-03-24T17:49:02.370Z,18.06
2023-03-24T17:51:28.924Z,17.92
2023-03-24T17:53:55.461Z,17.79
2023-03-24T17:56:22.074Z,17.69
2023-03-24T17:58:48.939Z,17.55
2023-03-24T18:01:18.267Z,17.38
2023-03-24T18:03:45.067Z,17.27
2023-03-24T18:06:15.692Z,17.13
2023-03-24T18:08:42.632Z,16.94
2023-03-24T18:11:11.777Z,16.73
2023-03-24T18:13:38.466Z,16.70
2023-03-24T18:16:19.708Z,16.60
2023-03-24T18:18:47.838Z,16.47
2023-03-24T18:21:14.714Z,16.37
2023-03-24T18:23:41.489Z,16.29
2023-03-24T18:26:08.903Z,16.16
2023-03-24T18:28:37.531Z,16.13
2023-03-24T18:31:16.008Z,15.94
2023-03-24T18:33:45.914Z,15.84
2023-03-24T18:36:16.599Z,15.68
2023-03-24T18:38:43.589Z,15.56
2023-03-24T18:41:12.851Z,15.47
2023-03-24T18:43:44.982Z,15.47
2023-03-24T18:46:11.833Z,15.49
2023-03-24T18:48:39.610Z,15.49
2023-03-24T18:51:07.817Z,15.32
2023-03-24T18:53:34.713Z,15.26
2023-03-24T18:56:02.391Z,15.24
2023-03-24T18:58:28.976Z,15.15
2023-03-24T19:00:57.516Z,15.07
2023-03-24T19:03:27.161Z,15.01
2023-03-24T19:05:54.103Z,14.95
2023-03-24T19:08:21.940Z,14.95
2023-03-24T19:10:49.161Z,14.92
2023-03-24T19:13:16.944Z,14.87
2023-03-24T19:15:48.377Z,14.77
2023-03-24T19:18:15.511Z,14.74
2023-03-24T19:20:42.215Z,14.71
2023-03-24T19:23:09.284Z,14.69
2023-03-24T19:25:36.315Z,14.58
2023-03-24T19:28:03.300Z,14.54
2023-03-24T19:30:29.909Z,14.52
2023-03-24T19:32:56.968Z,14.49
2023-03-24T19:35:24.211Z,14.49
2023-03-24T19:37:50.836Z,14.44
2023-03-24T19:40:17.598Z,14.37
2023-03-24T19:42:45.171Z,14.35
2023-03-24T19:45:15.491Z,14.34
2023-03-24T19:47:51.735Z,14.22
2023-03-24T19:50:18.667Z,14.09
2023-03-24T19:52:46.172Z,14.04
2023-03-24T19:55:12.824Z,14.02
2023-03-24T19:57:39.502Z,13.95
2023-03-24T20:00:10.201Z,13.94
2023-03-24T20:02:38.336Z,13.88
2023-03-24T20:05:06.844Z,13.81
2023-03-24T20:07:34.194Z,13.79
2023-03-24T20:10:00.872Z,13.73
2023-03-24T20:12:27.812Z,13.64
2023-03-24T20:14:55.061Z,13.55
2023-03-24T20:17:24.837Z,13.43
2023-03-24T20:19:51.429Z,13.38
2023-03-24T20:22:18.064Z,13.37
2023-03-24T20:24:44.736Z,13.34
2023-03-24T20:27:11.323Z,13.32
2023-03-24T20:29:39.896Z,13.35
2023-03-24T20:32:10.226Z,13.48
2023-03-24T20:34:38.064Z,13.61
2023-03-24T20:37:05.560Z,13.74
2023-03-24T20:39:32.348Z,13.78
2023-03-24T20:41:59.194Z,13.80
2023-03-24T20:44:26.201Z,13.91
2023-03-24T20:46:53.030Z,13.97
2023-03-24T20:49:19.630Z,13.99
2023-03-24T20:51:46.287Z,14.02
2023-03-24T20:54:13.428Z,14.07
2023-03-24T20:56:40.074Z,14.07
2023-03-24T20:59:07.085Z,14.07
2023-03-24T21:01:41.893Z,14.06
2023-03-24T21:04:10.090Z,14.03
2023-03-24T21:06:40.317Z,14.04
2023-03-24T21:09:07.248Z,14.06
2023-03-24T21:11:34.206Z,14.05
2023-03-24T21:14:02.643Z,14.06
2023-03-24T21:16:33.702Z,14.09
2023-03-24T21:19:03.761Z,14.09
2023-03-24T21:21:31.075Z,14.08
2023-03-24T21:23:58.114Z,14.07
2023-03-24T21:26:25.364Z,14.07
2023-03-24T21:28:55.514Z,14.15
2023-03-24T21:31:29.532Z,14.15
2023-03-24T21:33:57.317Z,14.17
2023-03-24T21:36:25.649Z,14.19
2023-03-24T21:38:54.048Z,14.23
2023-03-24T21:41:22.935Z,14.31
2023-03-24T21:43:54.270Z,14.44
2023-03-24T21:46:22.463Z,14.57
2023-03-24T21:48:55.506Z,14.66
2023-03-24T21:51:25.081Z,14.70
2023-03-24T21:53:55.834Z,14.78
2023-03-24T21:56:23.349Z,14.80
2023-03-24T21:58:52.135Z,14.83
2023-03-24T22:01:18.695Z,14.85
2023-03-24T22:03:46.421Z,14.87
2023-03-24T22:06:13.278Z,14.90
2023-03-24T22:08:43.517Z,14.90
2023-03-24T22:11:10.994Z,14.93
2023-03-24T22:13:39.364Z,14.95
2023-03-24T22:16:06.769Z,15.02
2023-03-24T22:18:35.093Z,15.11
2023-03-24T22:21:06.863Z,15.16
2023-03-24T22:23:37.798Z,15.24
2023-03-24T22:26:10.396Z,15.30
2023-03-24T22:28:37.789Z,15.36
2023-03-24T22:31:13.795Z,15.38
2023-03-24T22:33:40.683Z,15.41
2023-03-24T22:36:08.029Z,15.43
2023-03-24T22:38:34.962Z,15.46
2023-03-24T22:41:04.991Z,15.53
2023-03-24T22:43:32.087Z,15.54
2023-03-24T22:45:58.682Z,15.56
2023-03-24T22:48:25.686Z,15.56
2023-03-24T22:50:52.984Z,15.57
2023-03-24T22:53:20.588Z,15.57
2023-03-24T22:55:47.400Z,15.60
2023-03-24T22:58:14.270Z,15.61
2023-03-24T23:00:42.211Z,15.63
2023-03-24T23:03:10.008Z,15.62
2023-03-24T23:05:45.561Z,15.63
2023-03-24T23:08:15.153Z,15.64
2023-03-24T23:10:43.982Z,15.64
2023-03-24T23:13:11.267Z,15.64
2023-03-24T23:15:38.931Z,15.63
2023-03-24T23:18:05.716Z,15.62
2023-03-24T23:20:32.459Z,15.62
2023-03-24T23:22:59.008Z,15.62
2023-03-24T23:25:25.976Z,15.60
2023-03-24T23:27:52.585Z,15.58
2023-03-24T23:30:19.767Z,15.55
2023-03-24T23:32:46.922Z,15.56
2023-03-24T23:35:13.883Z,15.56
2023-03-24T23:37:40.484Z,15.54
2023-03-24T23:40:12.769Z,15.52
2023-03-24T23:42:41.448Z,15.51
2023-03-24T23:45:10.862Z,15.49
2023-03-24T23:47:37.684Z,15.48
2023-03-24T23:50:06.329Z,15.48
2023-03-24T23:52:33.801Z,15.46
2023-03-24T23:55:02.226Z,15.43
2023-03-24T23:57:29.014Z,15.44
2023-03-24T23:59:55.590Z,15.46
